Time;durP1;ratioP1;P1;durP2;ratioP2;P2;SDS_P1;SDS_P2;PMS_P1;PMS_P2;Temp;Humidity;BMP_temperature;BMP_pressure;BME280_temperature;BME280_humidity;BME280_pressure;Samples;Min_cycle;Max_cycle;Signal;HPM_P1;HPM_P2
2022/07/22 00:02:16;;;;;;;17.85;3.35;;;15.90;99.90;;;;;;4990699;28;20570;-69
2022/07/22 00:04:42;;;;;;;13.90;2.97;;;15.80;99.90;;;;;;4973390;28;20089;-69
2022/07/22 00:07:08;;;;;;;13.90;3.28;;;15.80;99.90;;;;;;4990432;28;20042;-68
2022/07/22 00:09:33;;;;;;;8.48;2.45;;;15.80;99.90;;;;;;4990838;28;20459;-68
2022/07/22 00:12:00;;;;;;;12.82;3.03;;;15.70;99.90;;;;;;4991532;28;20042;-68
2022/07/22 00:14:25;;;;;;;11.32;2.70;;;15.70;99.90;;;;;;4973060;28;20042;-69
2022/07/22 00:16:51;;;;;;;10.93;2.95;;;15.80;99.90;;;;;;4990138;28;20499;-68
2022/07/22 00:19:17;;;;;;;10.27;2.50;;;15.80;99.90;;;;;;4992192;28;20046;-67
2022/07/22 00:21:43;;;;;;;15.32;2.67;;;15.70;99.90;;;;;;4988780;28;20171;-68
2022/07/22 00:24:10;;;;;;;13.43;1.98;;;15.70;99.90;;;;;;4994699;28;20054;-68
2022/07/22 00:26:35;;;;;;;16.05;2.83;;;15.60;99.90;;;;;;4993190;28;20042;-68
2022/07/22 00:29:01;;;;;;;12.93;2.20;;;15.60;99.90;;;;;;4989904;28;20457;-69
2022/07/22 00:31:28;;;;;;;11.82;2.30;;;15.70;99.90;;;;;;4990701;28;20107;-68
2022/07/22 00:33:53;;;;;;;9.85;2.20;;;15.70;99.90;;;;;;4990314;28;20070;-69
2022/07/22 00:36:19;;;;;;;8.88;2.33;;;15.60;99.90;;;;;;4973590;28;20081;-69
2022/07/22 00:38:45;;;;;;;9.65;2.10;;;15.60;99.90;;;;;;4989705;28;20054;-68
2022/07/22 00:41:10;;;;;;;8.05;1.98;;;15.60;99.90;;;;;;5029606;28;20045;-67
2022/07/22 00:44:09;;;;;;;10.77;2.00;;;15.60;99.90;;;;;;5018401;28;20054;-68
2022/07/22 00:46:37;;;;;;;10.27;2.28;;;15.60;99.90;;;;;;5011541;28;20042;-69
2022/07/22 00:49:04;;;;;;;7.95;2.10;;;15.50;99.90;;;;;;5029234;28;20046;-68
2022/07/22 00:51:33;;;;;;;11.13;2.05;;;15.50;99.90;;;;;;5028950;28;20034;-69
2022/07/22 00:54:00;;;;;;;11.55;2.35;;;15.50;99.90;;;;;;5052160;28;20440;-69
2022/07/22 00:56:28;;;;;;;13.93;2.88;;;15.50;99.90;;;;;;5024541;28;20061;-69
2022/07/22 00:58:56;;;;;;;9.00;2.10;;;15.50;99.90;;;;;;5028136;28;20821;-68
2022/07/22 01:01:21;;;;;;;10.18;2.40;;;15.50;99.90;;;;;;5024322;28;20043;-70
2022/07/22 01:03:47;;;;;;;11.80;2.47;;;15.50;99.90;;;;;;5025366;28;20040;-70
2022/07/22 01:06:13;;;;;;;11.20;2.63;;;15.50;99.90;;;;;;5022837;28;20034;-69
2022/07/22 01:08:39;;;;;;;12.45;2.30;;;15.60;99.90;;;;;;5032548;28;20042;-69
2022/07/22 01:11:15;;;;;;;12.23;2.42;;;15.50;99.90;;;;;;5019443;28;20046;-69
2022/07/22 01:13:42;;;;;;;8.43;1.80;;;15.50;99.90;;;;;;5017725;28;20042;-69
2022/07/22 01:16:10;;;;;;;10.68;2.22;;;15.50;99.90;;;;;;5020150;28;20085;-70
2022/07/22 01:18:37;;;;;;;11.93;2.30;;;15.60;99.90;;;;;;5005564;28;20051;-70
2022/07/22 01:21:04;;;;;;;11.20;2.15;;;15.50;99.90;;;;;;5021179;28;20506;-68
2022/07/22 01:23:33;;;;;;;11.60;1.75;;;15.50;99.90;;;;;;5025253;28;20046;-69
2022/07/22 01:25:59;;;;;;;10.13;1.90;;;15.50;99.90;;;;;;5019266;28;20082;-68
2022/07/22 01:28:25;;;;;;;6.90;1.70;;;15.50;99.90;;;;;;5007492;28;20105;-69
2022/07/22 01:30:51;;;;;;;9.02;1.90;;;15.50;99.90;;;;;;5021901;28;20052;-69
2022/07/22 01:33:18;;;;;;;6.28;1.88;;;15.50;99.90;;;;;;4998866;28;20050;-69
2022/07/22 01:35:44;;;;;;;7.53;1.63;;;15.50;99.90;;;;;;5002629;28;20046;-69
2022/07/22 01:38:10;;;;;;;7.95;1.65;;;15.50;99.90;;;;;;4991985;28;20499;-69
2022/07/22 01:40:39;;;;;;;9.00;1.90;;;15.50;99.90;;;;;;4986515;28;20052;-69
2022/07/22 01:43:04;;;;;;;8.50;2.03;;;15.50;99.90;;;;;;4986541;28;20538;-69
2022/07/22 01:45:33;;;;;;;10.07;1.73;;;15.40;99.90;;;;;;4985910;28;20078;-68
2022/07/22 01:47:59;;;;;;;8.93;1.85;;;15.40;99.90;;;;;;4987945;28;20042;-69
2022/07/22 01:50:25;;;;;;;11.07;2.25;;;15.40;99.90;;;;;;4987304;28;20042;-69
2022/07/22 01:52:51;;;;;;;7.72;1.70;;;15.40;99.90;;;;;;4969032;28;20060;-69
2022/07/22 01:55:17;;;;;;;12.25;2.17;;;15.40;99.90;;;;;;4987410;28;20074;-69
2022/07/22 01:57:43;;;;;;;8.80;1.65;;;15.40;99.90;;;;;;5016022;28;20079;-68
2022/07/22 02:00:10;;;;;;;8.27;1.92;;;15.40;99.90;;;;;;5016371;28;20035;-70
2022/07/22 02:02:37;;;;;;;8.38;1.55;;;15.40;99.90;;;;;;4986733;28;20495;-69
2022/07/22 02:05:05;;;;;;;10.18;1.90;;;15.40;99.90;;;;;;4986084;28;20121;-68
2022/07/22 02:07:31;;;;;;;7.85;2.15;;;15.30;99.90;;;;;;4984433;28;20136;-67
2022/07/22 02:09:57;;;;;;;11.68;2.20;;;15.40;99.90;;;;;;4986041;28;20410;-69
2022/07/22 02:12:23;;;;;;;7.70;2.00;;;15.30;99.90;;;;;;4986974;28;20121;-66
2022/07/22 02:14:48;;;;;;;7.22;1.90;;;15.30;99.90;;;;;;4986077;28;20050;-70
2022/07/22 02:17:14;;;;;;;8.27;1.63;;;15.30;99.90;;;;;;4986332;28;20051;-69
2022/07/22 02:19:40;;;;;;;7.97;1.90;;;15.30;99.90;;;;;;4984964;28;20061;-69
2022/07/22 02:22:06;;;;;;;8.55;1.70;;;15.30;99.90;;;;;;5001414;28;20137;-69
2022/07/22 02:24:32;;;;;;;8.60;1.70;;;15.30;99.90;;;;;;4969029;28;20082;-69
2022/07/22 02:26:58;;;;;;;7.03;1.63;;;15.30;99.90;;;;;;4985206;28;20085;-68
2022/07/22 02:29:24;;;;;;;8.48;1.77;;;15.30;99.90;;;;;;4985451;28;20098;-69
2022/07/22 02:31:50;;;;;;;8.52;1.70;;;15.30;99.90;;;;;;5001330;28;20038;-68
2022/07/22 02:34:16;;;;;;;6.13;1.58;;;15.30;99.90;;;;;;4985296;28;20166;-68
2022/07/22 02:36:41;;;;;;;7.97;1.70;;;15.20;99.90;;;;;;4985166;28;20046;-69
2022/07/22 02:39:07;;;;;;;8.65;1.70;;;15.20;99.90;;;;;;4985384;28;20034;-69
2022/07/22 02:41:33;;;;;;;6.90;2.10;;;15.20;99.90;;;;;;4985290;28;20054;-66
2022/07/22 02:43:59;;;;;;;6.38;1.27;;;15.20;99.90;;;;;;4986020;28;20049;-68
2022/07/22 02:46:28;;;;;;;9.13;1.55;;;15.20;99.90;;;;;;4986315;28;20076;-68
2022/07/22 02:48:54;;;;;;;7.72;1.63;;;15.20;99.90;;;;;;4985723;28;20743;-68
2022/07/22 02:51:20;;;;;;;10.80;1.58;;;15.20;99.90;;;;;;4970201;28;20050;-69
2022/07/22 02:53:46;;;;;;;6.10;1.60;;;15.20;99.90;;;;;;4985500;28;20091;-69
2022/07/22 02:56:12;;;;;;;6.85;1.48;;;15.20;99.90;;;;;;4982403;28;20048;-69
2022/07/22 02:58:38;;;;;;;6.70;1.67;;;15.20;99.90;;;;;;5020690;28;20073;-69
2022/07/22 03:01:03;;;;;;;5.80;2.22;;;15.20;99.90;;;;;;5023026;28;20038;-68
2022/07/22 03:03:29;;;;;;;7.40;1.45;;;15.10;99.90;;;;;;5028335;28;20032;-68
2022/07/22 03:05:55;;;;;;;7.40;1.58;;;15.20;99.90;;;;;;5009278;28;20034;-69
2022/07/22 03:08:20;;;;;;;8.77;1.83;;;15.20;99.90;;;;;;5025477;28;20063;-69
2022/07/22 03:10:46;;;;;;;6.07;1.60;;;15.20;99.90;;;;;;5022524;28;20042;-68
2022/07/22 03:13:12;;;;;;;8.13;1.70;;;15.20;99.90;;;;;;5019232;28;20042;-67
2022/07/22 03:15:38;;;;;;;4.63;1.60;;;15.20;99.90;;;;;;5023985;28;20410;-69
2022/07/22 03:18:03;;;;;;;6.68;1.63;;;15.10;99.90;;;;;;5029696;28;20163;-68
2022/07/22 03:20:29;;;;;;;9.15;2.13;;;15.10;99.90;;;;;;5024116;28;20083;-70
2022/07/22 03:22:55;;;;;;;7.22;1.60;;;15.20;99.90;;;;;;5020498;28;20112;-69
2022/07/22 03:25:21;;;;;;;9.00;2.10;;;15.20;99.90;;;;;;4998090;28;20062;-68
2022/07/22 03:27:46;;;;;;;7.43;1.67;;;15.20;99.90;;;;;;5020586;28;20039;-70
2022/07/22 03:30:12;;;;;;;6.80;2.08;;;15.10;99.90;;;;;;5023595;28;21380;-70
2022/07/22 03:32:38;;;;;;;6.82;1.60;;;15.20;99.90;;;;;;5016751;28;20068;-70
2022/07/22 03:35:04;;;;;;;8.43;1.90;;;15.20;99.90;;;;;;4993988;28;20121;-69
2022/07/22 03:37:33;;;;;;;7.00;2.38;;;15.20;99.90;;;;;;4985394;28;20042;-70
2022/07/22 03:39:59;;;;;;;7.78;1.60;;;15.10;99.90;;;;;;4968269;28;20070;-69
2022/07/22 03:42:24;;;;;;;6.57;1.60;;;15.20;99.90;;;;;;4968878;28;20070;-68
2022/07/22 03:44:50;;;;;;;10.40;2.40;;;15.20;99.90;;;;;;4984751;28;20249;-70
2022/07/22 03:47:20;;;;;;;7.90;1.50;;;15.20;99.90;;;;;;4985813;28;20558;-71
2022/07/22 03:49:46;;;;;;;6.30;1.60;;;15.20;99.90;;;;;;4984341;28;20038;-69
2022/07/22 03:52:12;;;;;;;10.85;1.50;;;15.20;99.90;;;;;;4984660;28;20050;-69
2022/07/22 03:54:38;;;;;;;7.63;1.88;;;15.20;99.90;;;;;;4984079;28;20077;-67
2022/07/22 03:57:04;;;;;;;7.45;1.60;;;15.10;99.90;;;;;;4985160;28;20046;-70
2022/07/22 03:59:33;;;;;;;9.13;1.67;;;15.20;99.90;;;;;;4984105;28;20406;-68
2022/07/22 04:01:59;;;;;;;6.82;1.55;;;15.20;99.90;;;;;;4973828;28;20479;-69
2022/07/22 04:04:24;;;;;;;9.15;1.73;;;15.20;99.90;;;;;;4984819;28;20082;-67
2022/07/22 04:06:51;;;;;;;10.35;1.73;;;15.10;99.90;;;;;;4983190;28;20132;-66
2022/07/22 04:09:17;;;;;;;8.00;1.83;;;15.20;99.90;;;;;;4984384;28;20053;-67
2022/07/22 04:11:43;;;;;;;5.78;1.30;;;15.20;99.90;;;;;;4984439;28;20050;-68
2022/07/22 04:14:09;;;;;;;7.93;1.50;;;15.30;99.90;;;;;;4965495;28;20560;-69
2022/07/22 04:16:35;;;;;;;6.28;1.55;;;15.20;99.90;;;;;;4998518;28;20058;-70
2022/07/22 04:19:01;;;;;;;6.78;1.77;;;15.10;99.90;;;;;;5001774;28;20046;-67
2022/07/22 04:21:27;;;;;;;9.18;1.67;;;15.20;99.90;;;;;;5002833;28;20209;-69
2022/07/22 04:23:53;;;;;;;5.57;1.60;;;15.20;99.90;;;;;;4987394;28;20114;-68
2022/07/22 04:26:19;;;;;;;8.02;1.50;;;15.20;99.90;;;;;;4993766;28;20516;-67
2022/07/22 04:28:45;;;;;;;7.45;1.65;;;15.20;99.90;;;;;;4988065;28;20046;-68
2022/07/22 04:31:11;;;;;;;10.02;1.50;;;15.20;99.90;;;;;;4987764;28;20038;-70
2022/07/22 04:33:37;;;;;;;7.85;1.60;;;15.20;99.90;;;;;;4971290;28;20038;-68
2022/07/22 04:36:03;;;;;;;7.43;2.05;;;15.20;99.90;;;;;;5001082;28;20047;-69
2022/07/22 04:38:29;;;;;;;4.78;1.20;;;15.20;99.90;;;;;;5011876;28;20396;-70
2022/07/22 04:40:55;;;;;;;9.38;1.70;;;15.20;99.90;;;;;;5000335;28;20053;-68
2022/07/22 04:43:21;;;;;;;4.30;1.15;;;15.20;99.90;;;;;;5026719;28;20054;-67
2022/07/22 04:45:46;;;;;;;8.13;1.70;;;15.30;99.90;;;;;;4995020;28;20054;-67
2022/07/22 04:48:12;;;;;;;8.70;1.70;;;15.20;99.90;;;;;;4986136;28;20049;-68
2022/07/22 04:50:38;;;;;;;10.40;1.77;;;15.30;99.90;;;;;;4991021;28;20038;-70
2022/07/22 04:53:04;;;;;;;4.45;1.30;;;15.30;99.90;;;;;;4987284;28;20452;-67
2022/07/22 04:55:32;;;;;;;11.85;1.85;;;15.30;99.90;;;;;;4986649;28;20046;-67
2022/07/22 04:57:58;;;;;;;5.75;1.48;;;15.30;99.90;;;;;;4986953;28;20768;-68
2022/07/22 05:00:24;;;;;;;9.50;1.70;;;15.30;99.90;;;;;;4988281;28;20125;-68
2022/07/22 05:02:50;;;;;;;5.93;1.40;;;15.30;99.90;;;;;;4986165;28;20043;-67
2022/07/22 05:05:15;;;;;;;8.13;1.63;;;15.40;99.90;;;;;;4987903;28;20114;-69
2022/07/22 05:07:41;;;;;;;6.63;1.65;;;15.50;99.90;;;;;;4987086;28;20053;-69
2022/07/22 05:10:07;;;;;;;10.95;1.70;;;15.40;99.90;;;;;;4987363;28;20072;-68
2022/07/22 05:12:33;;;;;;;7.63;1.83;;;15.40;99.90;;;;;;5002656;28;20038;-68
2022/07/22 05:14:59;;;;;;;6.78;1.50;;;15.40;99.90;;;;;;4986757;28;20507;-65
2022/07/22 05:17:24;;;;;;;8.27;1.40;;;15.50;99.90;;;;;;4999439;28;20054;-67
2022/07/22 05:19:50;;;;;;;11.82;1.42;;;15.60;99.90;;;;;;5007678;28;20050;-67
2022/07/22 05:22:16;;;;;;;9.60;1.85;;;15.60;99.90;;;;;;4989967;28;20042;-70
2022/07/22 05:24:41;;;;;;;6.43;1.30;;;15.60;99.90;;;;;;4993954;28;20126;-67
2022/07/22 05:27:07;;;;;;;7.30;1.42;;;15.70;99.90;;;;;;4984033;28;20046;-67
2022/07/22 05:29:33;;;;;;;7.05;1.60;;;15.60;99.90;;;;;;4991050;28;20196;-70
2022/07/22 05:31:59;;;;;;;7.47;1.60;;;15.70;99.90;;;;;;4988160;28;20053;-68
2022/07/22 05:34:24;;;;;;;10.40;1.70;;;15.70;99.90;;;;;;4998093;28;20068;-69
2022/07/22 05:36:50;;;;;;;6.57;1.35;;;15.70;99.90;;;;;;4969836;28;20703;-66
2022/07/22 05:39:16;;;;;;;7.07;1.75;;;15.70;99.90;;;;;;4969784;28;20566;-67
2022/07/22 05:41:41;;;;;;;8.38;1.60;;;15.70;99.90;;;;;;4987129;28;20042;-66
2022/07/22 05:44:07;;;;;;;4.38;1.20;;;15.80;99.90;;;;;;5007217;28;20032;-67
2022/07/22 05:46:33;;;;;;;6.80;1.50;;;15.80;99.90;;;;;;5024095;28;20050;-67
2022/07/22 05:48:59;;;;;;;7.55;1.35;;;15.80;99.90;;;;;;5016432;28;20050;-67
2022/07/22 05:51:24;;;;;;;6.38;1.42;;;15.90;99.90;;;;;;5009844;28;20129;-67
2022/07/22 05:53:50;;;;;;;10.82;1.60;;;15.90;99.90;;;;;;4990173;28;20399;-66
2022/07/22 05:56:16;;;;;;;10.60;1.58;;;16.00;99.90;;;;;;5004819;28;20064;-67
2022/07/22 05:58:42;;;;;;;12.98;2.10;;;16.00;99.90;;;;;;5023269;28;20184;-69
2022/07/22 06:01:10;;;;;;;7.65;1.30;;;16.00;99.90;;;;;;4997964;28;20186;-67
2022/07/22 06:03:35;;;;;;;9.65;1.50;;;16.10;99.90;;;;;;5021087;28;20044;-68
2022/07/22 06:06:04;;;;;;;7.63;1.63;;;16.10;99.90;;;;;;5029172;27;20057;-66
2022/07/22 06:08:31;;;;;;;10.98;1.63;;;16.20;99.90;;;;;;4967862;28;20050;-66
2022/07/22 06:10:59;;;;;;;6.93;1.70;;;16.20;99.90;;;;;;4985876;28;20121;-66
2022/07/22 06:13:24;;;;;;;7.25;1.70;;;16.20;99.90;;;;;;4984147;28;20113;-68
2022/07/22 06:15:50;;;;;;;9.00;1.50;;;16.30;99.90;;;;;;4997016;28;20133;-67
2022/07/22 06:18:16;;;;;;;7.63;1.50;;;16.30;99.90;;;;;;4992400;28;20065;-67
2022/07/22 06:20:42;;;;;;;8.85;1.40;;;16.30;99.90;;;;;;4982215;28;20430;-67
2022/07/22 06:23:07;;;;;;;7.93;1.70;;;16.40;99.90;;;;;;5013121;28;20065;-67
2022/07/22 06:25:33;;;;;;;10.02;1.88;;;16.40;99.90;;;;;;4981081;28;20842;-68
2022/07/22 06:27:59;;;;;;;6.13;1.70;;;16.40;99.90;;;;;;5015466;28;20458;-67
2022/07/22 06:30:26;;;;;;;12.65;1.60;;;16.60;99.90;;;;;;4992773;28;20046;-67
2022/07/22 06:32:52;;;;;;;9.00;1.90;;;16.60;99.90;;;;;;4983713;28;20109;-67
2022/07/22 06:35:17;;;;;;;6.43;1.50;;;16.40;99.90;;;;;;4987624;28;21480;-68
2022/07/22 06:37:43;;;;;;;6.30;1.63;;;16.60;99.90;;;;;;5002704;28;20111;-67
2022/07/22 06:40:09;;;;;;;5.05;1.40;;;16.60;99.90;;;;;;5020099;28;20054;-67
2022/07/22 06:42:35;;;;;;;12.30;1.80;;;16.70;99.90;;;;;;4986101;28;20053;-69
2022/07/22 06:45:00;;;;;;;6.47;1.70;;;16.70;99.90;;;;;;4984682;28;20042;-68
2022/07/22 06:47:26;;;;;;;4.93;1.40;;;16.70;99.90;;;;;;4986350;28;20113;-66
2022/07/22 06:49:52;;;;;;;9.18;1.65;;;16.70;99.90;;;;;;4995055;28;20550;-66
2022/07/22 06:52:18;;;;;;;5.60;1.55;;;16.70;99.90;;;;;;4994295;28;20045;-67
2022/07/22 06:54:43;;;;;;;8.20;1.70;;;16.70;99.90;;;;;;4992460;28;20394;-69
2022/07/22 06:57:09;;;;;;;11.25;2.00;;;16.80;99.90;;;;;;5018384;28;20055;-69
2022/07/22 06:59:35;;;;;;;8.93;1.73;;;17.00;99.90;;;;;;5013308;28;20130;-68
2022/07/22 07:02:00;;;;;;;8.48;1.58;;;17.00;99.90;;;;;;4992468;28;20054;-68
2022/07/22 07:04:26;;;;;;;6.30;1.33;;;17.00;99.90;;;;;;5020220;28;20039;-67
2022/07/22 07:06:52;;;;;;;8.48;1.63;;;17.10;99.90;;;;;;4985252;28;20070;-69
2022/07/22 07:09:17;;;;;;;8.02;1.55;;;17.20;99.90;;;;;;4983715;28;20050;-69
2022/07/22 07:11:43;;;;;;;6.97;1.30;;;17.20;99.90;;;;;;5000486;28;20407;-66
2022/07/22 07:14:08;;;;;;;7.15;1.70;;;17.20;99.90;;;;;;4984091;28;20100;-71
2022/07/22 07:16:34;;;;;;;6.57;1.50;;;17.20;99.90;;;;;;4982979;28;20459;-69
2022/07/22 07:19:00;;;;;;;6.05;1.40;;;17.30;99.90;;;;;;4968408;28;20464;-66
2022/07/22 07:21:26;;;;;;;7.82;1.20;;;17.30;99.90;;;;;;4985746;28;20173;-67
2022/07/22 07:23:51;;;;;;;5.22;1.10;;;17.30;99.90;;;;;;4983579;28;20375;-68
2022/07/22 07:26:17;;;;;;;8.95;1.67;;;17.30;99.90;;;;;;4983425;28;20043;-69
2022/07/22 07:28:43;;;;;;;6.75;1.10;;;17.30;99.90;;;;;;4984673;28;20046;-69
2022/07/22 07:31:08;;;;;;;6.07;1.45;;;17.30;99.90;;;;;;4985329;28;20054;-69
2022/07/22 07:33:35;;;;;;;8.25;1.42;;;17.30;99.90;;;;;;4968023;28;20068;-70
2022/07/22 07:36:01;;;;;;;10.25;1.48;;;17.40;99.90;;;;;;4985933;28;20043;-70
2022/07/22 07:38:26;;;;;;;9.07;1.60;;;17.40;99.90;;;;;;4985459;28;20058;-68
2022/07/22 07:40:52;;;;;;;8.02;1.88;;;17.50;99.90;;;;;;4984366;28;20045;-70
2022/07/22 07:43:20;;;;;;;5.68;1.20;;;17.50;99.90;;;;;;4968085;28;20052;-68
2022/07/22 07:45:45;;;;;;;6.85;1.33;;;17.50;99.90;;;;;;5016025;28;20562;-68
2022/07/22 07:48:11;;;;;;;7.35;1.50;;;17.50;99.90;;;;;;4984813;28;20179;-70
2022/07/22 07:50:37;;;;;;;9.18;1.67;;;17.50;99.90;;;;;;4983484;28;20157;-68
2022/07/22 07:53:03;;;;;;;7.10;1.38;;;17.50;99.90;;;;;;4985972;28;20494;-69
2022/07/22 07:55:28;;;;;;;10.13;1.33;;;17.50;99.90;;;;;;4986015;28;20589;-68
2022/07/22 07:57:54;;;;;;;7.72;1.20;;;17.60;99.90;;;;;;4987807;28;20035;-69
2022/07/22 08:00:30;;;;;;;10.00;1.27;;;17.50;99.90;;;;;;4976088;28;20057;-66
2022/07/22 08:02:59;;;;;;;4.97;0.95;;;17.60;99.90;;;;;;4987638;28;20050;-68
2022/07/22 08:05:24;;;;;;;6.72;0.95;;;17.70;99.90;;;;;;4988011;28;20038;-69
2022/07/22 08:07:50;;;;;;;5.75;1.10;;;17.70;99.90;;;;;;4987625;28;20376;-68
2022/07/22 08:10:17;;;;;;;99.95;6.28;;;17.80;99.90;;;;;;4988724;28;20034;-70
2022/07/22 08:12:43;;;;;;;8.60;1.33;;;17.90;99.90;;;;;;4986763;28;20056;-71
2022/07/22 08:15:09;;;;;;;7.55;1.35;;;18.00;99.90;;;;;;4987612;28;20125;-68
2022/07/22 08:17:35;;;;;;;7.57;1.30;;;18.10;99.90;;;;;;4987043;28;20100;-69
2022/07/22 08:20:03;;;;;;;5.97;1.58;;;18.20;99.90;;;;;;4987635;28;20030;-69
2022/07/22 08:22:29;;;;;;;5.75;1.20;;;18.30;99.90;;;;;;4987698;28;20559;-68
2022/07/22 08:24:55;;;;;;;6.18;1.15;;;18.40;99.90;;;;;;5003513;28;20060;-69
2022/07/22 08:27:21;;;;;;;8.75;1.40;;;18.30;99.90;;;;;;5003182;28;20051;-69
2022/07/22 08:29:47;;;;;;;7.72;1.45;;;18.30;99.90;;;;;;4989650;28;20081;-70
2022/07/22 08:32:13;;;;;;;8.68;1.17;;;18.30;99.90;;;;;;4987976;28;20107;-70
2022/07/22 08:34:39;;;;;;;6.18;1.00;;;18.20;99.90;;;;;;4971219;28;20062;-70
2022/07/22 08:37:04;;;;;;;7.82;1.30;;;18.20;99.90;;;;;;4986711;28;20399;-69
2022/07/22 08:39:34;;;;;;;4.68;1.42;;;18.20;99.90;;;;;;4987501;28;20097;-69
2022/07/22 08:41:59;;;;;;;6.82;1.42;;;18.20;99.90;;;;;;4988757;28;20055;-68
2022/07/22 08:44:33;;;;;;;7.45;1.02;;;18.30;99.90;;;;;;4988125;28;20053;-68
2022/07/22 08:47:00;;;;;;;5.75;1.10;;;18.30;99.90;;;;;;5002831;28;20081;-69
2022/07/22 08:49:26;;;;;;;5.30;1.10;;;18.30;99.90;;;;;;4987145;28;20034;-69
2022/07/22 08:51:52;;;;;;;14.13;1.50;;;18.30;99.90;;;;;;4988869;28;20038;-68
2022/07/22 08:54:17;;;;;;;7.88;1.13;;;18.30;99.90;;;;;;4986757;28;20058;-70
2022/07/22 08:56:48;;;;;;;7.95;1.00;;;18.30;99.90;;;;;;4988547;28;20068;-68
2022/07/22 08:59:14;;;;;;;6.40;1.10;;;18.30;99.90;;;;;;4987535;28;20074;-67
2022/07/22 09:02:02;;;;;;;6.22;1.00;;;18.40;99.90;;;;;;4969805;28;20548;-69
2022/07/22 09:04:29;;;;;;;4.93;0.90;;;18.40;99.90;;;;;;4987515;28;20099;-67
2022/07/22 09:06:55;;;;;;;9.55;0.90;;;18.50;99.90;;;;;;4985847;28;20109;-68
2022/07/22 09:09:32;;;;;;;7.30;0.90;;;18.50;99.90;;;;;;4987971;28;20046;-70
2022/07/22 09:12:07;;;;;;;6.88;0.80;;;18.50;99.90;;;;;;4987156;28;20050;-68
2022/07/22 09:14:55;;;;;;;4.40;0.80;;;18.60;99.90;;;;;;4986730;28;20046;-70
2022/07/22 09:17:34;;;;;;;6.05;1.08;;;18.70;99.90;;;;;;4987080;28;20093;-69
2022/07/22 09:20:00;;;;;;;5.32;0.70;;;18.70;99.90;;;;;;4987985;28;20066;-69
2022/07/22 09:22:38;;;;;;;5.72;0.80;;;18.70;99.90;;;;;;4987055;28;20048;-70
2022/07/22 09:25:31;;;;;;;5.13;0.85;;;18.70;99.90;;;;;;4987137;28;20740;-69
2022/07/22 09:28:18;;;;;;;2.92;0.85;;;18.80;99.90;;;;;;4984568;28;20076;-69
2022/07/22 09:30:49;;;;;;;3.13;0.90;;;18.90;99.90;;;;;;4971812;28;20038;-69
2022/07/22 09:33:17;;;;;;;4.00;0.88;;;18.90;99.90;;;;;;4970475;28;20065;-69
2022/07/22 09:35:44;;;;;;;7.60;1.20;;;19.00;99.90;;;;;;4970152;28;20418;-68
2022/07/22 09:38:11;;;;;;;3.63;0.70;;;19.00;99.90;;;;;;4986738;28;20050;-70
2022/07/22 09:40:39;;;;;;;4.68;1.02;;;19.00;99.90;;;;;;4971768;28;20115;-69
2022/07/22 09:43:13;;;;;;;4.30;1.10;;;19.10;99.90;;;;;;4987186;28;20418;-69
2022/07/22 09:45:47;;;;;;;2.95;0.80;;;19.20;99.90;;;;;;4985618;28;20243;-69
2022/07/22 09:48:14;;;;;;;3.55;0.80;;;19.30;99.90;;;;;;5002852;28;20049;-69
2022/07/22 09:50:39;;;;;;;4.20;0.85;;;19.40;99.90;;;;;;4987270;28;20049;-69
2022/07/22 09:53:05;;;;;;;2.88;0.80;;;19.50;99.90;;;;;;4986250;28;20608;-70
2022/07/22 09:55:33;;;;;;;4.68;0.80;;;19.70;99.90;;;;;;4987051;28;20035;-69
2022/07/22 09:57:59;;;;;;;3.10;0.70;;;19.80;99.90;;;;;;4986494;28;20073;-68
2022/07/22 10:00:26;;;;;;;5.57;0.93;;;19.90;99.90;;;;;;4970526;28;20127;-70
2022/07/22 10:02:59;;;;;;;4.25;0.95;;;19.90;99.90;;;;;;4986197;28;20073;-69
2022/07/22 10:05:27;;;;;;;2.72;0.70;;;19.80;99.90;;;;;;4969404;28;20573;-68
2022/07/22 10:07:54;;;;;;;4.97;1.10;;;19.70;99.90;;;;;;4969696;28;20046;-68
2022/07/22 10:10:28;;;;;;;4.00;0.85;;;19.60;99.90;;;;;;4970053;28;20414;-69
2022/07/22 10:12:56;;;;;;;4.95;1.02;;;19.40;99.90;;;;;;4983136;28;20054;-68
2022/07/22 10:15:23;;;;;;;5.75;1.15;;;19.40;99.90;;;;;;4985897;28;20160;-69
2022/07/22 10:17:57;;;;;;;7.82;0.90;;;19.30;99.90;;;;;;4984847;28;20107;-69
2022/07/22 10:20:26;;;;;;;6.35;1.17;;;19.10;99.90;;;;;;5004289;28;20042;-68
2022/07/22 10:22:55;;;;;;;6.38;1.40;;;19.10;99.90;;;;;;4993949;28;20061;-69
2022/07/22 10:25:24;;;;;;;7.18;1.02;;;19.00;99.90;;;;;;4985672;28;20043;-69
2022/07/22 10:27:57;;;;;;;5.70;1.10;;;18.90;99.90;;;;;;4969152;28;20487;-69
2022/07/22 10:30:29;;;;;;;3.83;0.93;;;18.90;99.90;;;;;;4986106;28;20054;-68
2022/07/22 10:33:11;;;;;;;4.05;1.08;;;18.80;99.90;;;;;;5001624;28;20069;-68
2022/07/22 10:35:43;;;;;;;6.45;1.45;;;18.80;99.90;;;;;;4962393;28;20057;-68
2022/07/22 10:38:10;;;;;;;7.82;1.10;;;18.70;99.90;;;;;;4981263;28;20115;-69
2022/07/22 10:40:46;;;;;;;4.38;1.30;;;18.80;99.90;;;;;;4964612;28;20065;-68
2022/07/22 10:43:14;;;;;;;9.52;1.20;;;18.80;99.90;;;;;;4980983;28;20053;-69
2022/07/22 10:45:45;;;;;;;3.80;0.80;;;18.90;99.90;;;;;;4981256;28;20046;-70
2022/07/22 10:48:15;;;;;;;;;;;18.90;99.90;;;;;;4964537;28;20050;-69
2022/07/22 10:50:47;;;;;;;5.93;0.90;;;19.10;99.90;;;;;;4982276;28;19968;-68
2022/07/22 10:53:17;;;;;;;3.65;0.80;;;19.20;99.90;;;;;;4982990;28;20042;-69
2022/07/22 10:56:15;;;;;;;5.85;0.80;;;19.30;99.90;;;;;;4981343;28;20057;-69
2022/07/22 10:58:53;;;;;;;4.70;0.90;;;19.40;99.90;;;;;;4978701;28;20042;-68
2022/07/22 11:01:22;;;;;;;4.00;0.93;;;19.50;99.90;;;;;;4981061;28;20077;-69
2022/07/22 11:03:49;;;;;;;8.93;1.40;;;19.60;99.90;;;;;;4981681;28;20117;-69
2022/07/22 11:06:17;;;;;;;3.85;1.00;;;19.70;99.90;;;;;;4982060;28;20058;-68
2022/07/22 11:08:45;;;;;;;4.65;0.77;;;19.80;99.90;;;;;;4980271;28;20482;-68
2022/07/22 11:11:11;;;;;;;5.93;0.80;;;19.80;99.90;;;;;;4982462;28;20094;-68
2022/07/22 11:13:39;;;;;;;4.93;1.00;;;19.90;99.90;;;;;;4983902;28;20053;-68
2022/07/22 11:16:15;;;;;;;2.22;0.90;;;20.00;99.90;;;;;;4970793;28;20087;-68
2022/07/22 11:18:46;;;;;;;3.35;0.80;;;20.00;99.90;;;;;;4981620;28;20054;-69
2022/07/22 11:21:15;;;;;;;2.88;0.73;;;20.10;99.90;;;;;;4965195;28;20039;-68
2022/07/22 11:23:41;;;;;;;3.72;0.80;;;20.10;99.90;;;;;;4980424;28;20038;-68
2022/07/22 11:26:10;;;;;;;6.38;0.70;;;20.10;99.90;;;;;;4981711;28;20046;-68
2022/07/22 11:28:44;;;;;;;4.63;1.02;;;20.10;99.90;;;;;;4981428;28;20053;-69
2022/07/22 11:31:14;;;;;;;4.68;0.90;;;20.10;99.90;;;;;;5011657;28;20065;-69
2022/07/22 11:33:39;;;;;;;4.90;0.80;;;20.10;99.90;;;;;;5012585;28;20046;-67
2022/07/22 11:36:09;;;;;;;2.30;0.60;;;20.10;99.90;;;;;;4978804;28;20046;-69
2022/07/22 11:38:49;;;;;;;4.47;0.80;;;20.10;99.90;;;;;;4981479;28;20050;-68
2022/07/22 11:41:17;;;;;;;6.35;1.58;;;20.20;99.90;;;;;;4981043;28;20046;-69
2022/07/22 11:43:50;;;;;;;4.07;0.73;;;20.10;99.90;;;;;;4985249;28;20049;-67
2022/07/22 11:46:17;;;;;;;4.57;0.80;;;20.10;99.90;;;;;;5010957;28;20474;-69
2022/07/22 11:48:44;;;;;;;5.03;0.65;;;20.10;99.90;;;;;;4999017;28;20529;-69
2022/07/22 11:51:11;;;;;;;3.67;0.65;;;19.90;99.90;;;;;;5029695;28;20044;-68
2022/07/22 11:53:38;;;;;;;4.30;0.68;;;19.80;99.90;;;;;;5004188;28;20054;-70
2022/07/22 11:56:06;;;;;;;1.30;0.45;;;19.70;99.90;;;;;;5020908;28;20050;-68
2022/07/22 11:58:43;;;;;;;2.17;0.77;;;19.70;99.90;;;;;;5021757;28;20048;-69
2022/07/22 12:01:11;;;;;;;2.38;0.65;;;19.80;99.90;;;;;;5021661;28;20061;-68
2022/07/22 12:03:39;;;;;;;3.25;0.70;;;19.80;99.90;;;;;;5019401;28;20071;-69
2022/07/22 12:06:08;;;;;;;3.70;0.77;;;19.90;99.90;;;;;;5012834;28;20051;-69
2022/07/22 12:08:39;;;;;;;3.17;0.70;;;20.00;99.90;;;;;;5024631;28;20924;-69
2022/07/22 12:11:05;;;;;;;;;;;20.00;99.90;;;;;;4996758;28;20046;-68
2022/07/22 12:13:31;;;;;;;1.95;0.50;;;20.10;99.90;;;;;;5009494;28;19936;-68
2022/07/22 12:15:58;;;;;;;4.22;0.63;;;20.20;99.90;;;;;;5055000;28;20051;-68
2022/07/22 12:18:26;;;;;;;2.03;0.50;;;20.20;99.90;;;;;;5012117;28;20137;-69
2022/07/22 12:20:54;;;;;;;2.95;0.50;;;20.20;99.90;;;;;;5036940;28;20046;-69
2022/07/22 12:23:21;;;;;;;2.42;0.52;;;20.30;99.90;;;;;;5009278;28;20610;-69
2022/07/22 12:25:51;;;;;;;3.63;0.68;;;20.40;99.90;;;;;;5024232;28;20043;-68
2022/07/22 12:28:17;;;;;;;2.92;0.57;;;20.40;99.90;;;;;;5027852;28;20805;-68
2022/07/22 12:30:43;;;;;;;2.85;0.60;;;20.50;99.90;;;;;;4990626;28;20034;-68
2022/07/22 12:33:16;;;;;;;4.00;0.60;;;20.50;99.90;;;;;;5026950;28;20136;-68
2022/07/22 12:35:43;;;;;;;1.50;0.52;;;20.50;99.90;;;;;;5002440;28;20117;-69
2022/07/22 12:38:10;;;;;;;2.03;0.55;;;20.60;99.90;;;;;;4994108;28;20415;-68
2022/07/22 12:40:36;;;;;;;2.38;0.68;;;20.60;99.90;;;;;;5015758;28;20867;-69
2022/07/22 12:43:07;;;;;;;1.25;0.60;;;20.70;99.90;;;;;;4984941;28;20694;-68
2022/07/22 12:45:36;;;;;;;4.00;0.50;;;20.70;99.90;;;;;;4998367;28;20144;-69
2022/07/22 12:48:03;;;;;;;2.47;0.65;;;20.70;99.90;;;;;;4984794;28;20046;-69